sensor_id;sensor_type;location;lat;lon;timestamp;P1;durP1;ratioP1;P2;durP2;ratioP2
77740;SDS011;66919;51.006;4.630;2023-01-31T00:01:17;80.53;;;31.65;;
77740;SDS011;66919;51.006;4.630;2023-01-31T00:03:44;90.35;;;37.40;;
77740;SDS011;66919;51.006;4.630;2023-01-31T00:06:19;66.13;;;24.92;;
77740;SDS011;66919;51.006;4.630;2023-01-31T00:09:02;31.95;;;11.68;;
77740;SDS011;66919;51.006;4.630;2023-01-31T00:11:30;31.55;;;11.75;;
77740;SDS011;66919;51.006;4.630;2023-01-31T00:13:56;39.13;;;14.35;;
77740;SDS011;66919;51.006;4.630;2023-01-31T00:16:23;33.30;;;13.93;;
77740;SDS011;66919;51.006;4.630;2023-01-31T00:18:49;33.08;;;11.50;;
77740;SDS011;66919;51.006;4.630;2023-01-31T00:23:42;30.65;;;11.40;;
77740;SDS011;66919;51.006;4.630;2023-01-31T00:28:36;30.85;;;11.25;;
77740;SDS011;66919;51.006;4.630;2023-01-31T00:31:02;36.47;;;11.38;;
77740;SDS011;66919;51.006;4.630;2023-01-31T00:33:27;31.23;;;10.77;;
77740;SDS011;66919;51.006;4.630;2023-01-31T00:35:53;27.20;;;9.32;;
77740;SDS011;66919;51.006;4.630;2023-01-31T00:38:19;22.88;;;8.63;;
77740;SDS011;66919;51.006;4.630;2023-01-31T00:40:53;31.35;;;11.10;;
77740;SDS011;66919;51.006;4.630;2023-01-31T00:43:19;31.30;;;9.73;;
77740;SDS011;66919;51.006;4.630;2023-01-31T00:45:45;28.38;;;9.15;;
77740;SDS011;66919;51.006;4.630;2023-01-31T00:48:11;30.33;;;10.35;;
77740;SDS011;66919;51.006;4.630;2023-01-31T00:50:38;29.77;;;9.95;;
77740;SDS011;66919;51.006;4.630;2023-01-31T00:53:04;38.55;;;11.25;;
77740;SDS011;66919;51.006;4.630;2023-01-31T00:55:30;39.85;;;11.57;;
77740;SDS011;66919;51.006;4.630;2023-01-31T00:57:56;29.85;;;9.65;;
77740;SDS011;66919;51.006;4.630;2023-01-31T01:00:21;30.48;;;9.20;;
77740;SDS011;66919;51.006;4.630;2023-01-31T01:02:47;35.53;;;9.07;;
77740;SDS011;66919;51.006;4.630;2023-01-31T01:05:13;29.48;;;9.90;;
77740;SDS011;66919;51.006;4.630;2023-01-31T01:07:39;33.72;;;9.48;;
77740;SDS011;66919;51.006;4.630;2023-01-31T01:10:06;35.42;;;10.50;;
77740;SDS011;66919;51.006;4.630;2023-01-31T01:12:32;31.13;;;9.57;;
77740;SDS011;66919;51.006;4.630;2023-01-31T01:14:57;39.90;;;10.18;;
77740;SDS011;66919;51.006;4.630;2023-01-31T01:17:23;27.63;;;8.73;;
77740;SDS011;66919;51.006;4.630;2023-01-31T01:19:49;36.55;;;9.80;;
77740;SDS011;66919;51.006;4.630;2023-01-31T01:22:15;30.63;;;10.02;;
77740;SDS011;66919;51.006;4.630;2023-01-31T01:24:41;32.15;;;11.07;;
77740;SDS011;66919;51.006;4.630;2023-01-31T01:27:07;34.65;;;11.65;;
77740;SDS011;66919;51.006;4.630;2023-01-31T01:29:33;35.55;;;11.02;;
77740;SDS011;66919;51.006;4.630;2023-01-31T01:32:00;27.08;;;9.35;;
77740;SDS011;66919;51.006;4.630;2023-01-31T01:34:25;35.10;;;10.82;;
77740;SDS011;66919;51.006;4.630;2023-01-31T01:36:51;41.38;;;10.82;;
77740;SDS011;66919;51.006;4.630;2023-01-31T01:39:17;36.35;;;10.60;;
77740;SDS011;66919;51.006;4.630;2023-01-31T01:41:43;24.98;;;9.70;;
77740;SDS011;66919;51.006;4.630;2023-01-31T01:47:11;36.35;;;11.55;;
77740;SDS011;66919;51.006;4.630;2023-01-31T01:49:48;44.70;;;11.15;;
77740;SDS011;66919;51.006;4.630;2023-01-31T01:52:19;41.35;;;12.38;;
77740;SDS011;66919;51.006;4.630;2023-01-31T01:54:52;26.00;;;11.68;;
77740;SDS011;66919;51.006;4.630;2023-01-31T01:57:24;34.20;;;11.43;;
77740;SDS011;66919;51.006;4.630;2023-01-31T01:59:59;44.15;;;11.43;;
77740;SDS011;66919;51.006;4.630;2023-01-31T02:02:32;37.42;;;10.80;;
77740;SDS011;66919;51.006;4.630;2023-01-31T02:04:58;35.38;;;13.35;;
77740;SDS011;66919;51.006;4.630;2023-01-31T02:07:24;31.98;;;11.05;;
77740;SDS011;66919;51.006;4.630;2023-01-31T02:09:52;33.55;;;10.80;;
77740;SDS011;66919;51.006;4.630;2023-01-31T02:12:37;28.05;;;10.20;;
77740;SDS011;66919;51.006;4.630;2023-01-31T02:15:04;28.45;;;10.10;;
77740;SDS011;66919;51.006;4.630;2023-01-31T02:17:31;25.45;;;11.10;;
77740;SDS011;66919;51.006;4.630;2023-01-31T02:20:00;22.90;;;8.55;;
77740;SDS011;66919;51.006;4.630;2023-01-31T02:22:53;36.47;;;13.75;;
77740;SDS011;66919;51.006;4.630;2023-01-31T02:28:57;34.60;;;10.73;;
77740;SDS011;66919;51.006;4.630;2023-01-31T02:34:28;43.17;;;11.32;;
77740;SDS011;66919;51.006;4.630;2023-01-31T02:37:12;30.58;;;11.00;;
77740;SDS011;66919;51.006;4.630;2023-01-31T02:40:01;28.00;;;11.48;;
77740;SDS011;66919;51.006;4.630;2023-01-31T02:45:37;28.60;;;9.32;;
77740;SDS011;66919;51.006;4.630;2023-01-31T02:50:59;22.48;;;8.45;;
77740;SDS011;66919;51.006;4.630;2023-01-31T02:53:53;20.20;;;9.05;;
77740;SDS011;66919;51.006;4.630;2023-01-31T02:56:29;35.40;;;12.25;;
77740;SDS011;66919;51.006;4.630;2023-01-31T02:59:07;46.90;;;14.27;;
77740;SDS011;66919;51.006;4.630;2023-01-31T03:01:43;42.17;;;14.25;;
77740;SDS011;66919;51.006;4.630;2023-01-31T03:04:12;72.60;;;28.48;;
77740;SDS011;66919;51.006;4.630;2023-01-31T03:06:55;29.08;;;12.82;;
77740;SDS011;66919;51.006;4.630;2023-01-31T03:12:39;25.55;;;10.60;;
77740;SDS011;66919;51.006;4.630;2023-01-31T03:22:54;23.10;;;10.30;;
77740;SDS011;66919;51.006;4.630;2023-01-31T03:25:27;31.17;;;10.68;;
77740;SDS011;66919;51.006;4.630;2023-01-31T03:27:56;20.33;;;10.45;;
77740;SDS011;66919;51.006;4.630;2023-01-31T03:30:26;24.58;;;9.15;;
77740;SDS011;66919;51.006;4.630;2023-01-31T03:32:59;32.50;;;10.15;;
77740;SDS011;66919;51.006;4.630;2023-01-31T03:35:32;26.05;;;11.43;;
77740;SDS011;66919;51.006;4.630;2023-01-31T03:38:07;27.27;;;10.73;;
77740;SDS011;66919;51.006;4.630;2023-01-31T03:40:40;28.67;;;13.30;;
77740;SDS011;66919;51.006;4.630;2023-01-31T03:46:08;23.48;;;10.85;;
77740;SDS011;66919;51.006;4.630;2023-01-31T03:48:41;29.92;;;12.93;;
77740;SDS011;66919;51.006;4.630;2023-01-31T03:51:15;26.40;;;10.90;;
77740;SDS011;66919;51.006;4.630;2023-01-31T03:53:49;29.77;;;10.82;;
77740;SDS011;66919;51.006;4.630;2023-01-31T03:58:52;31.77;;;11.70;;
77740;SDS011;66919;51.006;4.630;2023-01-31T04:01:22;26.60;;;11.52;;
77740;SDS011;66919;51.006;4.630;2023-01-31T04:04:15;32.20;;;11.40;;
77740;SDS011;66919;51.006;4.630;2023-01-31T04:06:40;26.27;;;11.48;;
77740;SDS011;66919;51.006;4.630;2023-01-31T04:09:06;29.98;;;10.75;;
77740;SDS011;66919;51.006;4.630;2023-01-31T04:11:35;28.20;;;10.82;;
77740;SDS011;66919;51.006;4.630;2023-01-31T04:14:02;28.85;;;11.85;;
77740;SDS011;66919;51.006;4.630;2023-01-31T04:16:29;21.92;;;10.27;;
77740;SDS011;66919;51.006;4.630;2023-01-31T04:18:54;30.98;;;10.57;;
77740;SDS011;66919;51.006;4.630;2023-01-31T04:21:20;27.27;;;10.68;;
77740;SDS011;66919;51.006;4.630;2023-01-31T04:23:46;28.58;;;10.55;;
77740;SDS011;66919;51.006;4.630;2023-01-31T04:26:12;25.70;;;10.48;;
77740;SDS011;66919;51.006;4.630;2023-01-31T04:28:38;27.88;;;9.57;;
77740;SDS011;66919;51.006;4.630;2023-01-31T04:31:04;20.75;;;9.77;;
77740;SDS011;66919;51.006;4.630;2023-01-31T04:33:30;23.33;;;10.63;;
77740;SDS011;66919;51.006;4.630;2023-01-31T04:35:56;17.73;;;9.80;;
77740;SDS011;66919;51.006;4.630;2023-01-31T04:38:22;30.40;;;10.32;;
77740;SDS011;66919;51.006;4.630;2023-01-31T04:40:48;31.90;;;9.60;;
77740;SDS011;66919;51.006;4.630;2023-01-31T04:43:14;24.38;;;10.13;;
77740;SDS011;66919;51.006;4.630;2023-01-31T04:45:39;31.20;;;11.55;;
77740;SDS011;66919;51.006;4.630;2023-01-31T04:48:05;22.98;;;9.70;;
77740;SDS011;66919;51.006;4.630;2023-01-31T04:50:31;29.85;;;9.85;;
77740;SDS011;66919;51.006;4.630;2023-01-31T04:52:57;29.08;;;9.43;;
77740;SDS011;66919;51.006;4.630;2023-01-31T04:55:22;27.30;;;9.63;;
77740;SDS011;66919;51.006;4.630;2023-01-31T04:57:48;27.23;;;9.90;;
77740;SDS011;66919;51.006;4.630;2023-01-31T05:00:14;25.25;;;10.73;;
77740;SDS011;66919;51.006;4.630;2023-01-31T05:02:40;20.95;;;9.57;;
77740;SDS011;66919;51.006;4.630;2023-01-31T05:05:06;26.10;;;10.73;;
77740;SDS011;66919;51.006;4.630;2023-01-31T05:07:32;23.73;;;10.43;;
77740;SDS011;66919;51.006;4.630;2023-01-31T05:09:58;26.05;;;8.95;;
77740;SDS011;66919;51.006;4.630;2023-01-31T05:12:23;26.52;;;8.00;;
77740;SDS011;66919;51.006;4.630;2023-01-31T05:14:49;25.02;;;9.38;;
77740;SDS011;66919;51.006;4.630;2023-01-31T05:17:15;30.40;;;9.63;;
77740;SDS011;66919;51.006;4.630;2023-01-31T05:19:41;20.30;;;8.27;;
77740;SDS011;66919;51.006;4.630;2023-01-31T05:22:07;19.98;;;8.63;;
77740;SDS011;66919;51.006;4.630;2023-01-31T05:24:33;32.25;;;8.77;;
77740;SDS011;66919;51.006;4.630;2023-01-31T05:27:00;24.20;;;9.15;;
77740;SDS011;66919;51.006;4.630;2023-01-31T05:29:28;24.65;;;8.55;;
77740;SDS011;66919;51.006;4.630;2023-01-31T05:31:56;23.67;;;9.10;;
77740;SDS011;66919;51.006;4.630;2023-01-31T05:34:23;22.23;;;8.07;;
77740;SDS011;66919;51.006;4.630;2023-01-31T05:36:52;24.23;;;7.63;;
77740;SDS011;66919;51.006;4.630;2023-01-31T05:39:18;18.55;;;8.15;;
77740;SDS011;66919;51.006;4.630;2023-01-31T05:41:44;25.90;;;7.32;;
77740;SDS011;66919;51.006;4.630;2023-01-31T05:44:10;24.77;;;8.02;;
77740;SDS011;66919;51.006;4.630;2023-01-31T05:46:35;28.17;;;10.30;;
77740;SDS011;66919;51.006;4.630;2023-01-31T05:49:02;30.02;;;12.32;;
77740;SDS011;66919;51.006;4.630;2023-01-31T05:51:28;34.22;;;12.75;;
77740;SDS011;66919;51.006;4.630;2023-01-31T05:53:53;29.75;;;10.48;;
77740;SDS011;66919;51.006;4.630;2023-01-31T05:56:19;26.60;;;9.85;;
77740;SDS011;66919;51.006;4.630;2023-01-31T05:58:45;24.98;;;9.57;;
77740;SDS011;66919;51.006;4.630;2023-01-31T06:01:24;24.00;;;9.57;;
77740;SDS011;66919;51.006;4.630;2023-01-31T06:03:51;28.92;;;11.40;;
77740;SDS011;66919;51.006;4.630;2023-01-31T06:06:17;25.83;;;8.18;;
77740;SDS011;66919;51.006;4.630;2023-01-31T06:08:43;31.45;;;10.43;;
77740;SDS011;66919;51.006;4.630;2023-01-31T06:11:09;24.83;;;8.73;;
77740;SDS011;66919;51.006;4.630;2023-01-31T06:13:43;19.95;;;7.53;;
77740;SDS011;66919;51.006;4.630;2023-01-31T06:16:10;22.83;;;7.60;;
77740;SDS011;66919;51.006;4.630;2023-01-31T06:18:36;17.88;;;7.68;;
77740;SDS011;66919;51.006;4.630;2023-01-31T06:21:02;21.52;;;7.15;;
77740;SDS011;66919;51.006;4.630;2023-01-31T06:23:28;18.88;;;10.32;;
77740;SDS011;66919;51.006;4.630;2023-01-31T06:25:54;27.15;;;8.57;;
77740;SDS011;66919;51.006;4.630;2023-01-31T06:28:20;19.42;;;7.20;;
77740;SDS011;66919;51.006;4.630;2023-01-31T06:30:47;15.23;;;7.38;;
77740;SDS011;66919;51.006;4.630;2023-01-31T06:33:13;17.63;;;6.63;;
77740;SDS011;66919;51.006;4.630;2023-01-31T06:35:39;15.85;;;6.32;;
77740;SDS011;66919;51.006;4.630;2023-01-31T06:38:08;25.65;;;6.88;;
77740;SDS011;66919;51.006;4.630;2023-01-31T06:40:36;21.35;;;8.32;;
77740;SDS011;66919;51.006;4.630;2023-01-31T06:43:02;24.33;;;6.50;;
77740;SDS011;66919;51.006;4.630;2023-01-31T06:45:27;20.90;;;6.32;;
77740;SDS011;66919;51.006;4.630;2023-01-31T06:47:53;21.23;;;6.40;;
77740;SDS011;66919;51.006;4.630;2023-01-31T06:50:19;33.38;;;8.38;;
77740;SDS011;66919;51.006;4.630;2023-01-31T06:52:44;20.13;;;9.13;;
77740;SDS011;66919;51.006;4.630;2023-01-31T06:55:10;21.85;;;6.97;;
77740;SDS011;66919;51.006;4.630;2023-01-31T06:57:41;29.90;;;7.82;;
77740;SDS011;66919;51.006;4.630;2023-01-31T07:00:16;20.50;;;7.07;;
77740;SDS011;66919;51.006;4.630;2023-01-31T07:02:45;18.23;;;7.10;;
77740;SDS011;66919;51.006;4.630;2023-01-31T07:05:11;24.50;;;6.25;;
77740;SDS011;66919;51.006;4.630;2023-01-31T07:07:36;18.40;;;6.07;;
77740;SDS011;66919;51.006;4.630;2023-01-31T07:10:02;22.65;;;7.05;;
77740;SDS011;66919;51.006;4.630;2023-01-31T07:12:28;17.08;;;6.68;;
77740;SDS011;66919;51.006;4.630;2023-01-31T07:14:54;18.83;;;6.80;;
77740;SDS011;66919;51.006;4.630;2023-01-31T07:17:19;25.63;;;8.40;;
77740;SDS011;66919;51.006;4.630;2023-01-31T07:19:45;21.17;;;6.80;;
77740;SDS011;66919;51.006;4.630;2023-01-31T07:22:11;24.45;;;5.90;;
77740;SDS011;66919;51.006;4.630;2023-01-31T07:24:37;22.70;;;6.05;;
77740;SDS011;66919;51.006;4.630;2023-01-31T07:27:02;29.75;;;7.55;;
77740;SDS011;66919;51.006;4.630;2023-01-31T07:29:28;16.02;;;6.30;;
77740;SDS011;66919;51.006;4.630;2023-01-31T07:31:54;11.88;;;5.13;;
77740;SDS011;66919;51.006;4.630;2023-01-31T07:34:20;14.45;;;5.75;;
77740;SDS011;66919;51.006;4.630;2023-01-31T07:36:47;26.75;;;6.65;;
77740;SDS011;66919;51.006;4.630;2023-01-31T07:39:14;22.27;;;6.85;;
77740;SDS011;66919;51.006;4.630;2023-01-31T07:41:39;21.77;;;6.15;;
77740;SDS011;66919;51.006;4.630;2023-01-31T07:44:05;24.85;;;6.15;;
77740;SDS011;66919;51.006;4.630;2023-01-31T07:46:33;17.95;;;5.20;;
77740;SDS011;66919;51.006;4.630;2023-01-31T07:48:59;21.38;;;6.07;;
77740;SDS011;66919;51.006;4.630;2023-01-31T07:51:25;17.20;;;5.55;;
77740;SDS011;66919;51.006;4.630;2023-01-31T07:53:50;21.88;;;6.13;;
77740;SDS011;66919;51.006;4.630;2023-01-31T07:56:17;28.77;;;7.65;;
77740;SDS011;66919;51.006;4.630;2023-01-31T07:58:45;18.52;;;5.88;;
77740;SDS011;66919;51.006;4.630;2023-01-31T08:01:12;25.52;;;6.72;;
77740;SDS011;66919;51.006;4.630;2023-01-31T08:04:00;19.08;;;5.63;;
77740;SDS011;66919;51.006;4.630;2023-01-31T08:06:26;19.88;;;5.60;;
77740;SDS011;66919;51.006;4.630;2023-01-31T08:08:54;21.75;;;6.85;;
77740;SDS011;66919;51.006;4.630;2023-01-31T08:11:21;18.15;;;6.53;;
77740;SDS011;66919;51.006;4.630;2023-01-31T08:13:47;20.58;;;5.75;;
77740;SDS011;66919;51.006;4.630;2023-01-31T08:16:12;18.08;;;5.70;;
77740;SDS011;66919;51.006;4.630;2023-01-31T08:18:38;21.25;;;5.47;;
77740;SDS011;66919;51.006;4.630;2023-01-31T08:21:05;23.13;;;5.13;;
77740;SDS011;66919;51.006;4.630;2023-01-31T08:23:31;21.25;;;5.07;;
77740;SDS011;66919;51.006;4.630;2023-01-31T08:26:02;18.42;;;5.00;;
77740;SDS011;66919;51.006;4.630;2023-01-31T08:28:29;15.25;;;4.32;;
77740;SDS011;66919;51.006;4.630;2023-01-31T08:30:55;16.38;;;4.50;;
77740;SDS011;66919;51.006;4.630;2023-01-31T08:33:21;15.20;;;4.88;;
77740;SDS011;66919;51.006;4.630;2023-01-31T08:35:48;11.27;;;4.78;;
77740;SDS011;66919;51.006;4.630;2023-01-31T08:38:13;22.55;;;4.82;;
77740;SDS011;66919;51.006;4.630;2023-01-31T08:40:39;15.93;;;4.78;;
77740;SDS011;66919;51.006;4.630;2023-01-31T08:43:05;17.90;;;5.65;;
77740;SDS011;66919;51.006;4.630;2023-01-31T08:45:30;17.05;;;5.22;;
77740;SDS011;66919;51.006;4.630;2023-01-31T08:47:57;19.92;;;6.18;;
77740;SDS011;66919;51.006;4.630;2023-01-31T08:50:24;17.35;;;6.57;;
77740;SDS011;66919;51.006;4.630;2023-01-31T08:52:53;16.63;;;5.45;;
77740;SDS011;66919;51.006;4.630;2023-01-31T08:55:20;22.50;;;6.20;;
77740;SDS011;66919;51.006;4.630;2023-01-31T08:57:46;21.55;;;4.95;;
77740;SDS011;66919;51.006;4.630;2023-01-31T09:00:13;23.55;;;4.88;;
77740;SDS011;66919;51.006;4.630;2023-01-31T09:02:39;18.05;;;4.55;;
77740;SDS011;66919;51.006;4.630;2023-01-31T09:05:05;17.90;;;5.18;;
77740;SDS011;66919;51.006;4.630;2023-01-31T09:07:32;16.58;;;5.60;;
77740;SDS011;66919;51.006;4.630;2023-01-31T09:10:01;16.52;;;5.15;;
77740;SDS011;66919;51.006;4.630;2023-01-31T09:12:27;12.20;;;4.72;;
77740;SDS011;66919;51.006;4.630;2023-01-31T09:14:53;18.05;;;5.60;;
77740;SDS011;66919;51.006;4.630;2023-01-31T09:17:18;20.83;;;5.32;;
77740;SDS011;66919;51.006;4.630;2023-01-31T09:19:44;18.98;;;4.55;;
77740;SDS011;66919;51.006;4.630;2023-01-31T09:22:12;17.38;;;5.85;;
77740;SDS011;66919;51.006;4.630;2023-01-31T09:24:38;14.48;;;4.95;;
77740;SDS011;66919;51.006;4.630;2023-01-31T09:27:04;16.85;;;4.97;;
77740;SDS011;66919;51.006;4.630;2023-01-31T09:29:29;21.00;;;5.82;;
77740;SDS011;66919;51.006;4.630;2023-01-31T09:31:55;23.75;;;5.40;;
77740;SDS011;66919;51.006;4.630;2023-01-31T09:34:21;15.25;;;5.53;;
77740;SDS011;66919;51.006;4.630;2023-01-31T09:36:47;18.33;;;5.32;;
77740;SDS011;66919;51.006;4.630;2023-01-31T09:39:13;13.13;;;5.10;;
77740;SDS011;66919;51.006;4.630;2023-01-31T09:41:49;18.30;;;5.00;;
77740;SDS011;66919;51.006;4.630;2023-01-31T09:44:25;24.95;;;5.97;;
77740;SDS011;66919;51.006;4.630;2023-01-31T09:46:56;19.50;;;6.50;;
77740;SDS011;66919;51.006;4.630;2023-01-31T09:49:38;17.35;;;6.18;;
77740;SDS011;66919;51.006;4.630;2023-01-31T09:52:09;17.40;;;4.30;;
77740;SDS011;66919;51.006;4.630;2023-01-31T09:54:38;13.75;;;4.80;;
77740;SDS011;66919;51.006;4.630;2023-01-31T10:10:20;13.55;;;4.80;;
77740;SDS011;66919;51.006;4.630;2023-01-31T10:12:53;16.90;;;5.65;;
77740;SDS011;66919;51.006;4.630;2023-01-31T10:15:28;21.10;;;5.85;;
77740;SDS011;66919;51.006;4.630;2023-01-31T10:18:01;19.05;;;6.40;;
77740;SDS011;66919;51.006;4.630;2023-01-31T10:20:55;15.60;;;5.13;;
77740;SDS011;66919;51.006;4.630;2023-01-31T10:26:01;17.73;;;5.32;;
77740;SDS011;66919;51.006;4.630;2023-01-31T10:28:41;19.55;;;5.80;;
77740;SDS011;66919;51.006;4.630;2023-01-31T10:31:28;13.32;;;3.88;;
77740;SDS011;66919;51.006;4.630;2023-01-31T10:34:26;15.82;;;5.18;;
77740;SDS011;66919;51.006;4.630;2023-01-31T10:45:01;15.23;;;5.90;;
77740;SDS011;66919;51.006;4.630;2023-01-31T10:47:34;12.82;;;4.97;;
77740;SDS011;66919;51.006;4.630;2023-01-31T10:51:07;12.65;;;4.95;;
77740;SDS011;66919;51.006;4.630;2023-01-31T10:53:53;15.65;;;5.35;;
77740;SDS011;66919;51.006;4.630;2023-01-31T10:56:35;22.92;;;7.32;;
77740;SDS011;66919;51.006;4.630;2023-01-31T10:59:39;16.63;;;4.70;;
77740;SDS011;66919;51.006;4.630;2023-01-31T11:01:59;18.40;;;5.45;;
77740;SDS011;66919;51.006;4.630;2023-01-31T11:04:28;12.32;;;4.40;;
77740;SDS011;66919;51.006;4.630;2023-01-31T11:06:55;19.48;;;6.22;;
77740;SDS011;66919;51.006;4.630;2023-01-31T11:09:23;17.92;;;5.65;;
77740;SDS011;66919;51.006;4.630;2023-01-31T11:11:55;9.48;;;4.20;;
77740;SDS011;66919;51.006;4.630;2023-01-31T11:14:22;13.05;;;4.97;;
77740;SDS011;66919;51.006;4.630;2023-01-31T11:16:48;20.38;;;5.85;;
77740;SDS011;66919;51.006;4.630;2023-01-31T11:19:33;16.60;;;5.32;;
77740;SDS011;66919;51.006;4.630;2023-01-31T11:21:59;16.67;;;4.93;;
77740;SDS011;66919;51.006;4.630;2023-01-31T11:24:28;14.10;;;5.25;;
77740;SDS011;66919;51.006;4.630;2023-01-31T11:29:34;13.98;;;4.60;;
77740;SDS011;66919;51.006;4.630;2023-01-31T11:32:11;17.80;;;4.85;;
77740;SDS011;66919;51.006;4.630;2023-01-31T11:37:48;11.95;;;4.15;;
77740;SDS011;66919;51.006;4.630;2023-01-31T11:42:59;12.30;;;4.00;;
77740;SDS011;66919;51.006;4.630;2023-01-31T11:45:28;13.48;;;5.18;;
77740;SDS011;66919;51.006;4.630;2023-01-31T11:47:56;15.73;;;4.72;;
77740;SDS011;66919;51.006;4.630;2023-01-31T11:50:32;11.02;;;3.45;;
77740;SDS011;66919;51.006;4.630;2023-01-31T11:53:23;14.43;;;4.78;;
77740;SDS011;66919;51.006;4.630;2023-01-31T11:55:53;16.25;;;4.45;;
77740;SDS011;66919;51.006;4.630;2023-01-31T11:58:22;19.38;;;4.80;;
77740;SDS011;66919;51.006;4.630;2023-01-31T12:01:01;11.45;;;3.13;;
77740;SDS011;66919;51.006;4.630;2023-01-31T12:03:31;14.05;;;4.30;;
77740;SDS011;66919;51.006;4.630;2023-01-31T12:05:59;15.43;;;4.28;;
77740;SDS011;66919;51.006;4.630;2023-01-31T12:08:35;16.40;;;4.07;;
77740;SDS011;66919;51.006;4.630;2023-01-31T12:11:04;9.45;;;4.40;;
77740;SDS011;66919;51.006;4.630;2023-01-31T12:13:52;14.95;;;5.18;;
77740;SDS011;66919;51.006;4.630;2023-01-31T12:16:24;9.10;;;3.72;;
77740;SDS011;66919;51.006;4.630;2023-01-31T12:21:53;19.70;;;4.60;;
77740;SDS011;66919;51.006;4.630;2023-01-31T12:24:37;12.90;;;4.20;;
77740;SDS011;66919;51.006;4.630;2023-01-31T12:32:40;15.85;;;5.05;;
77740;SDS011;66919;51.006;4.630;2023-01-31T12:38:07;12.70;;;4.07;;
77740;SDS011;66919;51.006;4.630;2023-01-31T12:49:46;17.60;;;4.78;;
77740;SDS011;66919;51.006;4.630;2023-01-31T12:52:22;16.45;;;5.00;;
77740;SDS011;66919;51.006;4.630;2023-01-31T12:57:31;11.82;;;4.25;;
77740;SDS011;66919;51.006;4.630;2023-01-31T13:06:07;17.30;;;4.95;;
77740;SDS011;66919;51.006;4.630;2023-01-31T13:08:39;19.00;;;6.40;;
77740;SDS011;66919;51.006;4.630;2023-01-31T13:11:15;21.67;;;6.82;;
77740;SDS011;66919;51.006;4.630;2023-01-31T13:13:47;21.70;;;5.88;;
77740;SDS011;66919;51.006;4.630;2023-01-31T13:18:57;27.70;;;6.75;;
77740;SDS011;66919;51.006;4.630;2023-01-31T13:21:28;17.70;;;6.35;;
77740;SDS011;66919;51.006;4.630;2023-01-31T13:23:58;17.80;;;6.15;;
77740;SDS011;66919;51.006;4.630;2023-01-31T13:26:32;24.00;;;6.72;;
77740;SDS011;66919;51.006;4.630;2023-01-31T13:29:03;21.17;;;7.40;;
77740;SDS011;66919;51.006;4.630;2023-01-31T13:32:17;18.05;;;7.55;;
77740;SDS011;66919;51.006;4.630;2023-01-31T13:37:27;17.98;;;7.20;;
77740;SDS011;66919;51.006;4.630;2023-01-31T13:42:23;20.17;;;8.00;;
77740;SDS011;66919;51.006;4.630;2023-01-31T13:44:49;22.35;;;8.98;;
77740;SDS011;66919;51.006;4.630;2023-01-31T13:49:55;24.02;;;8.13;;
77740;SDS011;66919;51.006;4.630;2023-01-31T13:52:35;19.75;;;7.78;;
77740;SDS011;66919;51.006;4.630;2023-01-31T13:55:12;22.38;;;9.07;;
77740;SDS011;66919;51.006;4.630;2023-01-31T14:00:37;20.65;;;8.70;;
77740;SDS011;66919;51.006;4.630;2023-01-31T14:03:09;24.48;;;8.60;;
77740;SDS011;66919;51.006;4.630;2023-01-31T14:11:00;13.70;;;7.90;;
77740;SDS011;66919;51.006;4.630;2023-01-31T14:13:41;23.25;;;8.60;;
77740;SDS011;66919;51.006;4.630;2023-01-31T14:21:52;18.30;;;7.05;;
77740;SDS011;66919;51.006;4.630;2023-01-31T14:27:17;16.25;;;7.78;;
77740;SDS011;66919;51.006;4.630;2023-01-31T14:29:45;17.92;;;7.50;;
77740;SDS011;66919;51.006;4.630;2023-01-31T14:34:53;16.65;;;7.50;;
77740;SDS011;66919;51.006;4.630;2023-01-31T14:40:23;12.70;;;5.82;;
77740;SDS011;66919;51.006;4.630;2023-01-31T14:59:28;15.43;;;5.43;;
77740;SDS011;66919;51.006;4.630;2023-01-31T15:01:59;13.82;;;5.93;;
77740;SDS011;66919;51.006;4.630;2023-01-31T15:04:43;17.45;;;6.45;;
77740;SDS011;66919;51.006;4.630;2023-01-31T15:07:18;12.55;;;4.95;;
77740;SDS011;66919;51.006;4.630;2023-01-31T15:09:45;7.72;;;4.55;;
77740;SDS011;66919;51.006;4.630;2023-01-31T15:12:50;13.13;;;5.07;;
77740;SDS011;66919;51.006;4.630;2023-01-31T15:15:36;10.07;;;5.15;;
77740;SDS011;66919;51.006;4.630;2023-01-31T15:18:04;10.60;;;4.90;;
77740;SDS011;66919;51.006;4.630;2023-01-31T15:20:50;12.13;;;4.93;;
77740;SDS011;66919;51.006;4.630;2023-01-31T15:23:22;13.70;;;7.45;;
77740;SDS011;66919;51.006;4.630;2023-01-31T15:25:56;10.52;;;4.75;;
77740;SDS011;66919;51.006;4.630;2023-01-31T15:28:26;15.00;;;5.90;;
77740;SDS011;66919;51.006;4.630;2023-01-31T15:30:55;10.75;;;4.93;;
77740;SDS011;66919;51.006;4.630;2023-01-31T15:33:26;12.40;;;4.35;;
77740;SDS011;66919;51.006;4.630;2023-01-31T15:36:05;8.93;;;4.13;;
77740;SDS011;66919;51.006;4.630;2023-01-31T15:38:51;7.72;;;4.22;;
77740;SDS011;66919;51.006;4.630;2023-01-31T15:44:25;8.82;;;4.40;;
77740;SDS011;66919;51.006;4.630;2023-01-31T15:46:54;13.57;;;4.55;;
77740;SDS011;66919;51.006;4.630;2023-01-31T15:49:28;11.30;;;4.28;;
77740;SDS011;66919;51.006;4.630;2023-01-31T15:52:15;13.20;;;4.65;;
77740;SDS011;66919;51.006;4.630;2023-01-31T15:54:50;11.85;;;5.00;;
77740;SDS011;66919;51.006;4.630;2023-01-31T15:57:17;9.27;;;3.72;;
77740;SDS011;66919;51.006;4.630;2023-01-31T15:59:46;11.77;;;4.28;;
77740;SDS011;66919;51.006;4.630;2023-01-31T16:02:26;9.82;;;4.80;;
77740;SDS011;66919;51.006;4.630;2023-01-31T16:04:54;10.27;;;4.63;;
77740;SDS011;66919;51.006;4.630;2023-01-31T16:07:23;13.73;;;7.40;;
77740;SDS011;66919;51.006;4.630;2023-01-31T16:09:55;12.20;;;5.65;;
77740;SDS011;66919;51.006;4.630;2023-01-31T16:12:24;10.90;;;5.97;;
77740;SDS011;66919;51.006;4.630;2023-01-31T16:14:51;11.20;;;5.93;;
77740;SDS011;66919;51.006;4.630;2023-01-31T16:17:24;14.48;;;8.15;;
77740;SDS011;66919;51.006;4.630;2023-01-31T16:19:52;14.18;;;4.20;;
77740;SDS011;66919;51.006;4.630;2023-01-31T16:22:27;13.02;;;4.18;;
77740;SDS011;66919;51.006;4.630;2023-01-31T16:24:59;14.43;;;4.97;;
77740;SDS011;66919;51.006;4.630;2023-01-31T16:27:26;17.60;;;5.80;;
77740;SDS011;66919;51.006;4.630;2023-01-31T16:30:06;15.07;;;5.65;;
77740;SDS011;66919;51.006;4.630;2023-01-31T16:32:38;11.55;;;5.97;;
77740;SDS011;66919;51.006;4.630;2023-01-31T16:35:06;14.90;;;6.57;;
77740;SDS011;66919;51.006;4.630;2023-01-31T16:37:42;12.60;;;8.80;;
77740;SDS011;66919;51.006;4.630;2023-01-31T16:40:26;16.02;;;6.88;;
77740;SDS011;66919;51.006;4.630;2023-01-31T16:43:10;11.43;;;6.38;;
77740;SDS011;66919;51.006;4.630;2023-01-31T16:45:51;12.30;;;5.82;;
77740;SDS011;66919;51.006;4.630;2023-01-31T16:48:32;19.27;;;9.50;;
77740;SDS011;66919;51.006;4.630;2023-01-31T16:51:00;10.95;;;5.55;;
77740;SDS011;66919;51.006;4.630;2023-01-31T16:56:36;15.35;;;7.07;;
77740;SDS011;66919;51.006;4.630;2023-01-31T16:59:10;15.88;;;6.93;;
77740;SDS011;66919;51.006;4.630;2023-01-31T17:02:17;11.98;;;5.22;;
77740;SDS011;66919;51.006;4.630;2023-01-31T17:04:55;10.68;;;4.88;;
77740;SDS011;66919;51.006;4.630;2023-01-31T17:07:26;10.48;;;7.00;;
77740;SDS011;66919;51.006;4.630;2023-01-31T17:09:56;14.25;;;5.50;;
77740;SDS011;66919;51.006;4.630;2023-01-31T17:12:25;10.70;;;6.78;;
77740;SDS011;66919;51.006;4.630;2023-01-31T17:14:52;12.13;;;5.22;;
77740;SDS011;66919;51.006;4.630;2023-01-31T17:17:26;12.95;;;5.60;;
77740;SDS011;66919;51.006;4.630;2023-01-31T17:19:58;11.73;;;7.50;;
77740;SDS011;66919;51.006;4.630;2023-01-31T17:45:17;12.38;;;5.18;;
77740;SDS011;66919;51.006;4.630;2023-01-31T17:47:43;12.82;;;6.20;;